sensor_id;sensor_type;location;lat;lon;timestamp;pressure;altitude;pressure_sealevel;temperature;humidity
1776;BME280;885;42.626;23.200;2023-07-31T00:02:25;170406.31;;;19.23;100.00
1776;BME280;885;42.626;23.200;2023-07-31T00:04:52;170395.16;;;19.19;100.00
1776;BME280;885;42.626;23.200;2023-07-31T00:07:19;170366.06;;;19.08;100.00
1776;BME280;885;42.626;23.200;2023-07-31T00:09:46;170317.47;;;18.90;100.00
1776;BME280;885;42.626;23.200;2023-07-31T00:12:12;170311.94;;;18.88;100.00
1776;BME280;885;42.626;23.200;2023-07-31T00:14:39;170325.78;;;18.93;100.00
1776;BME280;885;42.626;23.200;2023-07-31T00:17:07;170304.97;;;18.86;100.00
1776;BME280;885;42.626;23.200;2023-07-31T00:19:34;170304.97;;;18.86;100.00
1776;BME280;885;42.626;23.200;2023-07-31T00:22:00;170268.91;;;18.73;100.00
1776;BME280;885;42.626;23.200;2023-07-31T00:24:27;170230.06;;;18.59;100.00
1776;BME280;885;42.626;23.200;2023-07-31T00:26:54;170228.66;;;18.58;100.00
1776;BME280;885;42.626;23.200;2023-07-31T00:29:21;170232.88;;;18.60;100.00
1776;BME280;885;42.626;23.200;2023-07-31T00:31:47;170223.13;;;18.56;100.00
1776;BME280;885;42.626;23.200;2023-07-31T00:34:15;170217.59;;;18.54;100.00
1776;BME280;885;42.626;23.200;2023-07-31T00:36:42;170220.38;;;18.55;100.00
1776;BME280;885;42.626;23.200;2023-07-31T00:39:09;170216.19;;;18.54;100.00
1776;BME280;885;42.626;23.200;2023-07-31T00:41:36;170212.03;;;18.52;100.00
1776;BME280;885;42.626;23.200;2023-07-31T00:44:03;170239.75;;;18.62;100.00
1776;BME280;885;42.626;23.200;2023-07-31T00:46:30;170264.75;;;18.71;100.00
1776;BME280;885;42.626;23.200;2023-07-31T00:48:57;170278.66;;;18.76;100.00
1776;BME280;885;42.626;23.200;2023-07-31T00:51:25;170256.47;;;18.68;100.00
1776;BME280;885;42.626;23.200;2023-07-31T00:53:52;170253.66;;;18.67;100.00
1776;BME280;885;42.626;23.200;2023-07-31T00:56:21;170259.22;;;18.69;100.00
1776;BME280;885;42.626;23.200;2023-07-31T00:58:48;170237.03;;;18.61;100.00
1776;BME280;885;42.626;23.200;2023-07-31T01:01:15;170189.84;;;18.44;100.00
1776;BME280;885;42.626;23.200;2023-07-31T01:03:42;170126.00;;;18.21;100.00
1776;BME280;885;42.626;23.200;2023-07-31T01:06:14;170112.09;;;18.16;100.00
1776;BME280;885;42.626;23.200;2023-07-31T01:08:56;170084.38;;;18.06;100.00
1776;BME280;885;42.626;23.200;2023-07-31T01:11:27;170081.63;;;18.05;100.00
1776;BME280;885;42.626;23.200;2023-07-31T01:13:55;170070.56;;;18.01;100.00
1776;BME280;885;42.626;23.200;2023-07-31T01:16:22;170066.34;;;17.99;100.00
1776;BME280;885;42.626;23.200;2023-07-31T01:18:49;170077.50;;;18.03;100.00
1776;BME280;885;42.626;23.200;2023-07-31T01:24:29;170078.84;;;18.04;100.00
1776;BME280;885;42.626;23.200;2023-07-31T01:27:02;170087.19;;;18.07;100.00
1776;BME280;885;42.626;23.200;2023-07-31T01:29:36;170117.69;;;18.18;100.00
1776;BME280;885;42.626;23.200;2023-07-31T01:32:06;170112.09;;;18.16;100.00
1776;BME280;885;42.626;23.200;2023-07-31T01:34:35;170076.09;;;18.03;100.00
1776;BME280;885;42.626;23.200;2023-07-31T01:37:02;170084.38;;;18.06;100.00
1776;BME280;885;42.626;23.200;2023-07-31T01:39:29;170128.78;;;18.22;100.00
1776;BME280;885;42.626;23.200;2023-07-31T01:41:57;170170.34;;;18.37;100.00
1776;BME280;885;42.626;23.200;2023-07-31T01:44:24;170184.25;;;18.42;100.00
1776;BME280;885;42.626;23.200;2023-07-31T01:46:51;170148.19;;;18.29;100.00
1776;BME280;885;42.626;23.200;2023-07-31T01:49:17;170131.53;;;18.23;100.00
1776;BME280;885;42.626;23.200;2023-07-31T01:51:44;170187.06;;;18.43;100.00
1776;BME280;885;42.626;23.200;2023-07-31T01:54:10;170223.13;;;18.56;100.00
1776;BME280;885;42.626;23.200;2023-07-31T01:56:36;170250.84;;;18.66;100.00
1776;BME280;885;42.626;23.200;2023-07-31T01:59:05;170278.66;;;18.76;100.00
1776;BME280;885;42.626;23.200;2023-07-31T02:01:31;170298.03;;;18.83;100.00
1776;BME280;885;42.626;23.200;2023-07-31T02:03:58;170295.28;;;18.82;100.00
1776;BME280;885;42.626;23.200;2023-07-31T02:06:25;170295.28;;;18.82;100.00
1776;BME280;885;42.626;23.200;2023-07-31T02:08:52;170286.94;;;18.79;100.00
1776;BME280;885;42.626;23.200;2023-07-31T02:11:19;170317.47;;;18.90;100.00
1776;BME280;885;42.626;23.200;2023-07-31T02:13:45;170327.19;;;18.94;100.00
1776;BME280;885;42.626;23.200;2023-07-31T02:16:13;170332.72;;;18.96;100.00
1776;BME280;885;42.626;23.200;2023-07-31T02:18:40;170316.09;;;18.90;100.00
1776;BME280;885;42.626;23.200;2023-07-31T02:21:07;170345.22;;;19.00;100.00
1776;BME280;885;42.626;23.200;2023-07-31T02:23:36;170353.56;;;19.03;100.00
1776;BME280;885;42.626;23.200;2023-07-31T02:26:03;170334.13;;;18.96;100.00
1776;BME280;885;42.626;23.200;2023-07-31T02:28:30;170338.28;;;18.98;100.00
1776;BME280;885;42.626;23.200;2023-07-31T02:30:56;170360.47;;;19.06;100.00
1776;BME280;885;42.626;23.200;2023-07-31T02:33:24;170363.25;;;19.07;100.00
1776;BME280;885;42.626;23.200;2023-07-31T02:35:51;170343.81;;;19.00;100.00
1776;BME280;885;42.626;23.200;2023-07-31T02:38:18;170339.69;;;18.98;100.00
1776;BME280;885;42.626;23.200;2023-07-31T02:40:45;170331.38;;;18.95;100.00
1776;BME280;885;42.626;23.200;2023-07-31T02:43:11;170331.38;;;18.95;100.00
1776;BME280;885;42.626;23.200;2023-07-31T02:45:38;170334.13;;;18.96;100.00
1776;BME280;885;42.626;23.200;2023-07-31T02:48:05;170311.94;;;18.88;100.00
1776;BME280;885;42.626;23.200;2023-07-31T02:50:33;170359.13;;;19.06;100.00
1776;BME280;885;42.626;23.200;2023-07-31T02:53:00;170342.47;;;18.99;100.00
1776;BME280;885;42.626;23.200;2023-07-31T02:55:27;170306.38;;;18.86;100.00
1776;BME280;885;42.626;23.200;2023-07-31T02:57:53;170370.22;;;19.10;100.00
1776;BME280;885;42.626;23.200;2023-07-31T03:00:20;170406.31;;;19.23;100.00
1776;BME280;885;42.626;23.200;2023-07-31T03:02:47;170386.84;;;19.16;100.00
1776;BME280;885;42.626;23.200;2023-07-31T03:05:14;170367.41;;;19.09;100.00
1776;BME280;885;42.626;23.200;2023-07-31T03:07:42;70618.47;;;-143.00;100.00
1776;BME280;885;42.626;23.200;2023-07-31T03:10:09;70618.47;;;-143.00;100.00
1776;BME280;885;42.626;23.200;2023-07-31T03:12:35;70618.47;;;-143.00;100.00
1776;BME280;885;42.626;23.200;2023-07-31T03:15:03;70618.47;;;-143.00;100.00
1776;BME280;885;42.626;23.200;2023-07-31T03:17:30;70618.47;;;-143.00;100.00
1776;BME280;885;42.626;23.200;2023-07-31T03:19:56;70618.47;;;-143.00;100.00
1776;BME280;885;42.626;23.200;2023-07-31T03:22:23;70618.47;;;-143.00;100.00
1776;BME280;885;42.626;23.200;2023-07-31T03:24:51;70618.47;;;-143.00;100.00
1776;BME280;885;42.626;23.200;2023-07-31T03:27:18;70618.47;;;-143.00;100.00
1776;BME280;885;42.626;23.200;2023-07-31T03:29:45;70618.47;;;-143.00;100.00
1776;BME280;885;42.626;23.200;2023-07-31T03:32:12;70618.47;;;-143.00;100.00
1776;BME280;885;42.626;23.200;2023-07-31T03:34:38;70618.47;;;-143.00;100.00
1776;BME280;885;42.626;23.200;2023-07-31T03:37:05;70618.47;;;-143.00;100.00
1776;BME280;885;42.626;23.200;2023-07-31T03:39:34;70618.47;;;-143.00;100.00
1776;BME280;885;42.626;23.200;2023-07-31T03:42:03;70618.47;;;-143.00;100.00
1776;BME280;885;42.626;23.200;2023-07-31T03:44:29;70618.47;;;-143.00;100.00
1776;BME280;885;42.626;23.200;2023-07-31T03:46:56;70618.47;;;-143.00;100.00
1776;BME280;885;42.626;23.200;2023-07-31T03:49:23;70618.47;;;-143.00;100.00
1776;BME280;885;42.626;23.200;2023-07-31T03:51:50;70618.47;;;-143.00;100.00
1776;BME280;885;42.626;23.200;2023-07-31T03:54:17;70618.47;;;-143.00;100.00
1776;BME280;885;42.626;23.200;2023-07-31T03:56:43;70618.47;;;-143.00;100.00
1776;BME280;885;42.626;23.200;2023-07-31T03:59:11;70618.47;;;-143.00;100.00
1776;BME280;885;42.626;23.200;2023-07-31T04:01:38;70618.47;;;-143.00;100.00
1776;BME280;885;42.626;23.200;2023-07-31T04:04:05;70618.47;;;-143.00;100.00
1776;BME280;885;42.626;23.200;2023-07-31T04:06:32;70618.47;;;-143.00;100.00
1776;BME280;885;42.626;23.200;2023-07-31T04:08:58;70618.47;;;-143.00;100.00
1776;BME280;885;42.626;23.200;2023-07-31T04:11:25;70618.47;;;-143.00;100.00
1776;BME280;885;42.626;23.200;2023-07-31T04:13:52;70618.47;;;-143.00;100.00
1776;BME280;885;42.626;23.200;2023-07-31T04:16:20;70618.47;;;-143.00;100.00
1776;BME280;885;42.626;23.200;2023-07-31T04:18:47;70618.47;;;-143.00;100.00
1776;BME280;885;42.626;23.200;2023-07-31T04:21:13;70618.47;;;-143.00;100.00
1776;BME280;885;42.626;23.200;2023-07-31T04:23:40;70618.47;;;-143.00;100.00
1776;BME280;885;42.626;23.200;2023-07-31T04:26:07;70618.47;;;-143.00;100.00
1776;BME280;885;42.626;23.200;2023-07-31T04:28:34;70618.47;;;-143.00;100.00
1776;BME280;885;42.626;23.200;2023-07-31T04:31:00;70618.47;;;-143.00;100.00
1776;BME280;885;42.626;23.200;2023-07-31T04:33:28;70618.47;;;-143.00;100.00
1776;BME280;885;42.626;23.200;2023-07-31T04:35:55;70618.47;;;-143.00;100.00
1776;BME280;885;42.626;23.200;2023-07-31T04:38:22;70618.47;;;-143.00;100.00
1776;BME280;885;42.626;23.200;2023-07-31T04:40:49;70618.47;;;-143.00;100.00
1776;BME280;885;42.626;23.200;2023-07-31T04:43:16;70618.47;;;-143.00;100.00
1776;BME280;885;42.626;23.200;2023-07-31T04:45:45;70618.47;;;-143.00;100.00
1776;BME280;885;42.626;23.200;2023-07-31T04:48:13;70618.47;;;-143.00;100.00
1776;BME280;885;42.626;23.200;2023-07-31T04:50:41;70618.47;;;-143.00;100.00
1776;BME280;885;42.626;23.200;2023-07-31T04:53:08;70618.47;;;-143.00;100.00
1776;BME280;885;42.626;23.200;2023-07-31T04:55:35;70618.47;;;-143.00;100.00
1776;BME280;885;42.626;23.200;2023-07-31T04:58:02;70618.47;;;-143.00;100.00
1776;BME280;885;42.626;23.200;2023-07-31T05:00:29;70618.47;;;-143.00;100.00
1776;BME280;885;42.626;23.200;2023-07-31T05:02:55;70618.47;;;-143.00;100.00
1776;BME280;885;42.626;23.200;2023-07-31T05:05:23;70618.47;;;-143.00;100.00
1776;BME280;885;42.626;23.200;2023-07-31T05:07:51;70618.47;;;-143.00;100.00
1776;BME280;885;42.626;23.200;2023-07-31T05:10:17;70618.47;;;-143.00;100.00
1776;BME280;885;42.626;23.200;2023-07-31T05:12:44;70618.47;;;-143.00;100.00
1776;BME280;885;42.626;23.200;2023-07-31T05:15:11;70618.47;;;-143.00;100.00
1776;BME280;885;42.626;23.200;2023-07-31T05:17:38;70618.47;;;-143.00;100.00
1776;BME280;885;42.626;23.200;2023-07-31T05:20:06;70618.47;;;-143.00;100.00
1776;BME280;885;42.626;23.200;2023-07-31T05:22:33;70618.47;;;-143.00;100.00
1776;BME280;885;42.626;23.200;2023-07-31T05:25:01;70618.47;;;-143.00;100.00
1776;BME280;885;42.626;23.200;2023-07-31T05:27:28;70618.47;;;-143.00;100.00
1776;BME280;885;42.626;23.200;2023-07-31T05:29:54;70618.47;;;-143.00;100.00
1776;BME280;885;42.626;23.200;2023-07-31T05:32:21;70618.47;;;-143.00;100.00
1776;BME280;885;42.626;23.200;2023-07-31T05:34:51;70618.47;;;-143.00;100.00
1776;BME280;885;42.626;23.200;2023-07-31T05:37:20;70618.47;;;-143.00;100.00
1776;BME280;885;42.626;23.200;2023-07-31T05:39:47;70618.47;;;-143.00;100.00
1776;BME280;885;42.626;23.200;2023-07-31T05:42:15;70618.47;;;-143.00;100.00
1776;BME280;885;42.626;23.200;2023-07-31T05:44:42;70618.47;;;-143.00;100.00
1776;BME280;885;42.626;23.200;2023-07-31T05:47:08;70618.47;;;-143.00;100.00
1776;BME280;885;42.626;23.200;2023-07-31T05:49:35;70618.47;;;-143.00;100.00
1776;BME280;885;42.626;23.200;2023-07-31T05:52:02;70618.47;;;-143.00;100.00
1776;BME280;885;42.626;23.200;2023-07-31T05:54:29;70618.47;;;-143.00;100.00
1776;BME280;885;42.626;23.200;2023-07-31T05:56:56;70618.47;;;-143.00;100.00
1776;BME280;885;42.626;23.200;2023-07-31T05:59:24;70618.47;;;-143.00;100.00
1776;BME280;885;42.626;23.200;2023-07-31T06:01:51;70618.47;;;-143.00;100.00
1776;BME280;885;42.626;23.200;2023-07-31T06:04:18;70618.47;;;-143.00;100.00
1776;BME280;885;42.626;23.200;2023-07-31T06:06:44;70618.47;;;-143.00;100.00
1776;BME280;885;42.626;23.200;2023-07-31T06:09:11;70618.47;;;-143.00;100.00
1776;BME280;885;42.626;23.200;2023-07-31T06:11:39;70618.47;;;-143.00;100.00
1776;BME280;885;42.626;23.200;2023-07-31T06:14:06;70618.47;;;-143.00;100.00
1776;BME280;885;42.626;23.200;2023-07-31T06:16:34;70618.47;;;-143.00;100.00
1776;BME280;885;42.626;23.200;2023-07-31T06:19:01;70618.47;;;-143.00;100.00
1776;BME280;885;42.626;23.200;2023-07-31T06:21:28;70618.47;;;-143.00;100.00
1776;BME280;885;42.626;23.200;2023-07-31T06:23:55;70618.47;;;-143.00;100.00
1776;BME280;885;42.626;23.200;2023-07-31T06:26:22;70618.47;;;-143.00;100.00
1776;BME280;885;42.626;23.200;2023-07-31T06:28:48;70618.47;;;-143.00;100.00
1776;BME280;885;42.626;23.200;2023-07-31T06:31:15;70618.47;;;-143.00;100.00
1776;BME280;885;42.626;23.200;2023-07-31T06:33:47;70618.47;;;-143.00;100.00
1776;BME280;885;42.626;23.200;2023-07-31T06:36:13;70618.47;;;-143.00;100.00
1776;BME280;885;42.626;23.200;2023-07-31T06:38:40;70618.47;;;-143.00;100.00
1776;BME280;885;42.626;23.200;2023-07-31T06:41:07;70618.47;;;-143.00;100.00
1776;BME280;885;42.626;23.200;2023-07-31T06:43:34;70618.47;;;-143.00;100.00
1776;BME280;885;42.626;23.200;2023-07-31T06:46:04;70618.47;;;-143.00;100.00
1776;BME280;885;42.626;23.200;2023-07-31T06:48:31;70618.47;;;-143.00;100.00
1776;BME280;885;42.626;23.200;2023-07-31T06:50:59;70618.47;;;-143.00;100.00
1776;BME280;885;42.626;23.200;2023-07-31T06:53:26;70618.47;;;-143.00;100.00
1776;BME280;885;42.626;23.200;2023-07-31T06:55:53;70618.47;;;-143.00;100.00
1776;BME280;885;42.626;23.200;2023-07-31T06:58:20;70618.47;;;-143.00;100.00
1776;BME280;885;42.626;23.200;2023-07-31T07:00:47;70618.47;;;-143.00;100.00
1776;BME280;885;42.626;23.200;2023-07-31T07:03:14;70618.47;;;-143.00;100.00
1776;BME280;885;42.626;23.200;2023-07-31T07:05:41;70618.47;;;-143.00;100.00
1776;BME280;885;42.626;23.200;2023-07-31T07:08:09;70618.47;;;-143.00;100.00
1776;BME280;885;42.626;23.200;2023-07-31T07:10:36;70618.47;;;-143.00;100.00
1776;BME280;885;42.626;23.200;2023-07-31T07:13:03;70618.47;;;-143.00;100.00
1776;BME280;885;42.626;23.200;2023-07-31T07:15:30;70618.47;;;-143.00;100.00
1776;BME280;885;42.626;23.200;2023-07-31T07:17:57;70618.47;;;-143.00;100.00
1776;BME280;885;42.626;23.200;2023-07-31T07:20:23;70618.47;;;-143.00;100.00
1776;BME280;885;42.626;23.200;2023-07-31T07:22:50;70618.47;;;-143.00;100.00
1776;BME280;885;42.626;23.200;2023-07-31T07:25:18;70618.47;;;-143.00;100.00
1776;BME280;885;42.626;23.200;2023-07-31T07:27:45;70618.47;;;-143.00;100.00
1776;BME280;885;42.626;23.200;2023-07-31T07:30:12;70618.47;;;-143.00;100.00
1776;BME280;885;42.626;23.200;2023-07-31T07:32:39;70618.47;;;-143.00;100.00
1776;BME280;885;42.626;23.200;2023-07-31T07:35:07;70618.47;;;-143.00;100.00
1776;BME280;885;42.626;23.200;2023-07-31T07:37:33;70618.47;;;-143.00;100.00
1776;BME280;885;42.626;23.200;2023-07-31T07:40:00;70618.47;;;-143.00;100.00
1776;BME280;885;42.626;23.200;2023-07-31T07:42:28;70618.47;;;-143.00;100.00
1776;BME280;885;42.626;23.200;2023-07-31T07:44:55;70618.47;;;-143.00;100.00
1776;BME280;885;42.626;23.200;2023-07-31T07:47:22;70618.47;;;-143.00;100.00
1776;BME280;885;42.626;23.200;2023-07-31T07:49:48;70618.47;;;-143.00;100.00
1776;BME280;885;42.626;23.200;2023-07-31T07:52:15;70618.47;;;-143.00;100.00
1776;BME280;885;42.626;23.200;2023-07-31T07:54:42;70618.47;;;-143.00;100.00
1776;BME280;885;42.626;23.200;2023-07-31T07:57:08;70618.47;;;-143.00;100.00
1776;BME280;885;42.626;23.200;2023-07-31T07:59:36;70618.47;;;-143.00;100.00
1776;BME280;885;42.626;23.200;2023-07-31T08:02:03;70618.47;;;-143.00;100.00
1776;BME280;885;42.626;23.200;2023-07-31T08:04:30;70618.47;;;-143.00;100.00
1776;BME280;885;42.626;23.200;2023-07-31T08:06:59;70618.47;;;-143.00;100.00
1776;BME280;885;42.626;23.200;2023-07-31T08:09:26;70618.47;;;-143.00;100.00
1776;BME280;885;42.626;23.200;2023-07-31T08:11:53;70618.47;;;-143.00;100.00
1776;BME280;885;42.626;23.200;2023-07-31T08:14:19;70618.47;;;-143.00;100.00
1776;BME280;885;42.626;23.200;2023-07-31T08:16:48;70618.47;;;-143.00;100.00
1776;BME280;885;42.626;23.200;2023-07-31T08:19:14;70618.47;;;-143.00;100.00
1776;BME280;885;42.626;23.200;2023-07-31T08:21:41;70618.47;;;-143.00;100.00
1776;BME280;885;42.626;23.200;2023-07-31T08:45:43;143163.31;;;23.20;77.49
1776;BME280;885;42.626;23.200;2023-07-31T08:48:11;142054.34;;;23.29;74.25
1776;BME280;885;42.626;23.200;2023-07-31T08:50:38;142450.44;;;23.38;75.78
1776;BME280;885;42.626;23.200;2023-07-31T08:53:05;141692.75;;;23.36;75.13
1776;BME280;885;42.626;23.200;2023-07-31T08:55:32;141691.63;;;23.35;75.38
1776;BME280;885;42.626;23.200;2023-07-31T08:58:00;142411.41;;;23.21;79.82
1776;BME280;885;42.626;23.200;2023-07-31T09:00:29;141253.66;;;23.08;77.70
1776;BME280;885;42.626;23.200;2023-07-31T09:03:00;141990.31;;;23.01;81.17
1776;BME280;885;42.626;23.200;2023-07-31T09:05:30;142052.09;;;23.28;77.74
1776;BME280;885;42.626;23.200;2023-07-31T09:07:57;141732.69;;;23.53;74.06
1776;BME280;885;42.626;23.200;2023-07-31T09:10:24;142188.28;;;23.88;72.10
1776;BME280;885;42.626;23.200;2023-07-31T09:12:52;141883.38;;;24.20;68.97
1776;BME280;885;42.626;23.200;2023-07-31T09:15:19;140724.09;;;24.07;69.46
1776;BME280;885;42.626;23.200;2023-07-31T09:17:46;142299.34;;;24.37;72.63
1776;BME280;885;42.626;23.200;2023-07-31T09:20:16;141942.75;;;24.46;70.58
1776;BME280;885;42.626;23.200;2023-07-31T09:22:44;141533.66;;;24.32;71.72
1776;BME280;885;42.626;23.200;2023-07-31T09:25:15;141878.81;;;24.18;74.38
1776;BME280;885;42.626;23.200;2023-07-31T09:58:56;140117.97;;;24.73;68.45
1776;BME280;885;42.626;23.200;2023-07-31T10:01:23;140084.16;;;24.58;71.37
1776;BME280;885;42.626;23.200;2023-07-31T10:03:50;140068.38;;;24.51;71.26
1776;BME280;885;42.626;23.200;2023-07-31T10:06:17;140431.94;;;24.45;73.65
1776;BME280;885;42.626;23.200;2023-07-31T10:08:46;138548.16;;;24.45;68.06
1776;BME280;885;42.626;23.200;2023-07-31T10:11:14;137771.19;;;24.35;67.70
1776;BME280;885;42.626;23.200;2023-07-31T10:13:42;136625.69;;;24.28;65.95
1776;BME280;885;42.626;23.200;2023-07-31T10:16:12;135871.47;;;24.27;64.66
1776;BME280;885;42.626;23.200;2023-07-31T10:18:39;138189.03;;;24.54;68.91
1776;BME280;885;42.626;23.200;2023-07-31T10:21:07;139408.44;;;24.93;67.36
1776;BME280;885;42.626;23.200;2023-07-31T10:23:34;137935.09;;;25.09;61.86
1776;BME280;885;42.626;23.200;2023-07-31T10:26:01;138321.25;;;25.13;64.06
1776;BME280;885;42.626;23.200;2023-07-31T10:28:29;137980.53;;;25.30;62.02
1776;BME280;885;42.626;23.200;2023-07-31T10:30:58;140713.25;;;25.70;65.88
1776;BME280;885;42.626;23.200;2023-07-31T10:33:27;139232.34;;;25.84;61.67
1776;BME280;885;42.626;23.200;2023-07-31T10:36:12;138867.94;;;25.90;61.67
1776;BME280;885;42.626;23.200;2023-07-31T10:38:38;138079.16;;;25.75;62.32
1776;BME280;885;42.626;23.200;2023-07-31T10:41:08;136918.94;;;25.62;61.75
1776;BME280;885;42.626;23.200;2023-07-31T10:43:36;135377.94;;;25.48;59.83
1776;BME280;885;42.626;23.200;2023-07-31T10:46:06;135336.63;;;25.29;62.60
1776;BME280;885;42.626;23.200;2023-07-31T10:48:35;135702.88;;;25.23;64.04
1776;BME280;885;42.626;23.200;2023-07-31T10:51:07;135724.66;;;25.34;62.80
1776;BME280;885;42.626;23.200;2023-07-31T10:53:34;136178.31;;;25.69;61.16
1776;BME280;885;42.626;23.200;2023-07-31T10:56:02;136626.94;;;26.01;59.37
1776;BME280;885;42.626;23.200;2023-07-31T10:58:29;134716.44;;;25.91;56.99
1776;BME280;885;42.626;23.200;2023-07-31T11:00:58;135910.97;;;26.20;58.28
1776;BME280;885;42.626;23.200;2023-07-31T11:03:26;136727.78;;;26.48;58.36
1776;BME280;885;42.626;23.200;2023-07-31T11:06:00;138272.03;;;26.62;62.17
1776;BME280;885;42.626;23.200;2023-07-31T11:08:30;138280.88;;;26.66;61.83
1776;BME280;885;42.626;23.200;2023-07-31T11:11:07;137111.28;;;26.50;60.91
1776;BME280;885;42.626;23.200;2023-07-31T11:13:40;136309.44;;;26.29;61.17
1776;BME280;885;42.626;23.200;2023-07-31T11:16:07;135526.75;;;26.17;60.89
1776;BME280;885;42.626;23.200;2023-07-31T11:18:34;136277.75;;;26.15;63.25
1776;BME280;885;42.626;23.200;2023-07-31T11:21:03;137090.41;;;26.41;63.17
1776;BME280;885;42.626;23.200;2023-07-31T11:23:30;136380.50;;;26.62;58.24
1776;BME280;885;42.626;23.200;2023-07-31T11:25:59;136836.38;;;26.98;57.34
1776;BME280;885;42.626;23.200;2023-07-31T11:28:31;136887.88;;;27.21;56.49
1776;BME280;885;42.626;23.200;2023-07-31T11:30:59;134584.66;;;27.06;53.88
1776;BME280;885;42.626;23.200;2023-07-31T11:33:26;132630.84;;;26.75;54.37
1776;BME280;885;42.626;23.200;2023-07-31T11:35:55;132183.22;;;26.42;58.27
1776;BME280;885;42.626;23.200;2023-07-31T11:38:25;129833.59;;;26.01;57.46
1776;BME280;885;42.626;23.200;2023-07-31T11:40:53;129804.50;;;25.87;58.76
1776;BME280;885;42.626;23.200;2023-07-31T11:43:20;129403.75;;;25.75;59.50
1776;BME280;885;42.626;23.200;2023-07-31T11:45:48;131365.19;;;26.12;61.01
1776;BME280;885;42.626;23.200;2023-07-31T11:48:19;132989.38;;;26.66;58.65
1776;BME280;885;42.626;23.200;2023-07-31T11:50:48;134225.88;;;27.15;56.94
1776;BME280;885;42.626;23.200;2023-07-31T11:53:17;131937.69;;;27.05;53.72
1776;BME280;885;42.626;23.200;2023-07-31T11:55:47;130339.94;;;26.63;54.97
1776;BME280;885;42.626;23.200;2023-07-31T11:58:15;130362.94;;;26.74;55.07
1776;BME280;885;42.626;23.200;2023-07-31T12:00:43;130352.44;;;26.69;55.41
1776;BME280;885;42.626;23.200;2023-07-31T12:03:10;129547.81;;;26.45;56.58
1776;BME280;885;42.626;23.200;2023-07-31T12:05:37;127975.47;;;26.14;57.09
1776;BME280;885;42.626;23.200;2023-07-31T12:08:09;126010.53;;;25.74;56.29
1776;BME280;885;42.626;23.200;2023-07-31T12:10:37;124447.03;;;25.45;56.56
1776;BME280;885;42.626;23.200;2023-07-31T12:13:08;125595.88;;;25.55;58.02
1776;BME280;885;42.626;23.200;2023-07-31T12:15:40;125606.91;;;25.60;57.78
1776;BME280;885;42.626;23.200;2023-07-31T12:18:11;127979.59;;;26.16;57.73
1776;BME280;885;42.626;23.200;2023-07-31T12:20:42;128814.94;;;26.56;54.37
1776;BME280;885;42.626;23.200;2023-07-31T12:23:14;129989.56;;;26.77;55.93
1776;BME280;885;42.626;23.200;2023-07-31T12:25:41;130006.19;;;26.85;55.92
1776;BME280;885;42.626;23.200;2023-07-31T12:28:10;131130.66;;;26.81;58.50
1776;BME280;885;42.626;23.200;2023-07-31T12:30:39;129592.34;;;26.67;56.96
1776;BME280;885;42.626;23.200;2023-07-31T12:33:07;128798.44;;;26.48;57.45
1776;BME280;885;42.626;23.200;2023-07-31T12:35:38;128757.25;;;26.28;59.75
1776;BME280;885;42.626;23.200;2023-07-31T12:38:05;129140.59;;;26.31;60.53
1776;BME280;885;42.626;23.200;2023-07-31T12:40:32;128388.38;;;26.32;58.57
1776;BME280;885;42.626;23.200;2023-07-31T12:43:01;129166.41;;;26.43;58.93
1776;BME280;885;42.626;23.200;2023-07-31T12:45:30;131480.91;;;26.67;62.15
1776;BME280;885;42.626;23.200;2023-07-31T12:47:57;132694.53;;;27.06;60.10
1776;BME280;885;42.626;23.200;2023-07-31T12:50:25;133568.00;;;27.61;56.41
1776;BME280;885;42.626;23.200;2023-07-31T12:52:53;133627.84;;;27.89;53.58
1776;BME280;885;42.626;23.200;2023-07-31T12:55:21;130886.94;;;27.45;52.97
1776;BME280;885;42.626;23.200;2023-07-31T12:57:48;132454.31;;;27.71;53.88
1776;BME280;885;42.626;23.200;2023-07-31T13:00:14;131724.09;;;27.84;51.70
1776;BME280;885;42.626;23.200;2023-07-31T13:02:42;129358.66;;;27.37;53.21
1776;BME280;885;42.626;23.200;2023-07-31T13:05:09;128934.47;;;27.14;54.52
1776;BME280;885;42.626;23.200;2023-07-31T13:07:36;129304.88;;;27.11;56.23
1776;BME280;885;42.626;23.200;2023-07-31T13:10:04;128519.84;;;26.96;56.15
1776;BME280;885;42.626;23.200;2023-07-31T13:12:31;128498.28;;;26.86;57.89
1776;BME280;885;42.626;23.200;2023-07-31T13:14:58;127732.28;;;26.80;56.33
1776;BME280;885;42.626;23.200;2023-07-31T13:17:25;128490.06;;;26.82;57.44
1776;BME280;885;42.626;23.200;2023-07-31T13:19:53;128142.38;;;26.96;55.88
1776;BME280;885;42.626;23.200;2023-07-31T13:22:20;127728.19;;;26.78;57.16
1776;BME280;885;42.626;23.200;2023-07-31T13:24:47;126156.72;;;26.47;57.66
1776;BME280;885;42.626;23.200;2023-07-31T13:27:14;124986.97;;;26.27;57.07
1776;BME280;885;42.626;23.200;2023-07-31T13:29:42;124591.34;;;26.18;57.53
1776;BME280;885;42.626;23.200;2023-07-31T13:32:09;123421.06;;;25.97;57.31
1776;BME280;885;42.626;23.200;2023-07-31T13:34:35;122992.56;;;25.70;59.41
1776;BME280;885;42.626;23.200;2023-07-31T13:37:04;123372.75;;;25.72;60.06
1776;BME280;885;42.626;23.200;2023-07-31T13:39:31;124146.19;;;25.83;60.72
1776;BME280;885;42.626;23.200;2023-07-31T13:41:58;124179.94;;;26.00;58.53
1776;BME280;885;42.626;23.200;2023-07-31T13:44:25;125358.72;;;26.25;58.72
1776;BME280;885;42.626;23.200;2023-07-31T13:46:52;125760.63;;;26.37;58.50
1776;BME280;885;42.626;23.200;2023-07-31T13:49:19;124964.03;;;26.16;58.76
1776;BME280;885;42.626;23.200;2023-07-31T13:51:46;123040.75;;;25.95;57.84
1776;BME280;885;42.626;23.200;2023-07-31T13:54:14;121853.38;;;25.65;58.09
1776;BME280;885;42.626;23.200;2023-07-31T13:56:42;122601.69;;;25.63;60.43
1776;BME280;885;42.626;23.200;2023-07-31T13:59:10;123365.88;;;25.69;61.24